createdAt,value
2023-01-17T00:00:07.335Z,77.53
2023-01-17T00:02:35.655Z,83.50
2023-01-17T00:05:23.013Z,84.93
2023-01-17T00:08:20.216Z,78.15
2023-01-17T00:10:48.857Z,78.43
2023-01-17T00:13:17.506Z,75.85
2023-01-17T00:15:46.043Z,82.43
2023-01-17T00:18:14.174Z,78.90
2023-01-17T00:21:01.173Z,77.63
2023-01-17T00:23:47.537Z,78.43
2023-01-17T00:26:20.257Z,78.38
2023-01-17T00:28:49.528Z,78.57
2023-01-17T00:31:17.893Z,79.07
2023-01-17T00:33:46.472Z,83.13
2023-01-17T00:36:14.593Z,78.60
2023-01-17T00:38:42.586Z,88.43
2023-01-17T00:41:13.183Z,80.70
2023-01-17T00:44:00.960Z,89.35
2023-01-17T00:49:34.131Z,80.50
2023-01-17T00:52:20.813Z,85.38
2023-01-17T00:55:07.299Z,79.57
2023-01-17T00:57:53.823Z,78.32
2023-01-17T01:00:41.085Z,77.83
2023-01-17T01:03:30.533Z,75.43
2023-01-17T01:06:17.544Z,80.90
2023-01-17T01:09:04.418Z,76.72
2023-01-17T01:11:51.011Z,79.40
2023-01-17T01:14:37.893Z,75.80
2023-01-17T01:17:24.429Z,81.90
2023-01-17T01:20:10.911Z,80.25
2023-01-17T01:22:57.548Z,88.85
2023-01-17T01:25:43.949Z,80.75
2023-01-17T01:28:32.475Z,80.15
2023-01-17T01:31:23.567Z,96.38
2023-01-17T01:33:53.307Z,90.43
2023-01-17T01:36:22.058Z,85.40
2023-01-17T01:38:50.631Z,89.63
2023-01-17T01:41:19.065Z,92.32
2023-01-17T01:43:52.474Z,87.18
2023-01-17T01:46:25.939Z,88.25
2023-01-17T01:49:02.626Z,82.75
2023-01-17T01:51:39.180Z,83.78
2023-01-17T01:54:21.909Z,86.72
2023-01-17T01:56:54.679Z,76.50
2023-01-17T01:59:23.777Z,75.80
2023-01-17T02:01:56.408Z,81.82
2023-01-17T02:04:26.821Z,73.15
2023-01-17T02:07:22.500Z,79.13
2023-01-17T02:09:50.582Z,75.05
2023-01-17T02:12:20.397Z,78.13
2023-01-17T02:14:48.988Z,70.95
2023-01-17T02:17:28.969Z,73.80
2023-01-17T02:20:09.050Z,78.55
2023-01-17T02:23:14.441Z,80.60
2023-01-17T02:25:59.980Z,81.30
2023-01-17T02:28:40.259Z,72.10
2023-01-17T02:31:27.181Z,78.03
2023-01-17T02:34:07.406Z,77.53
2023-01-17T02:37:03.444Z,79.43
2023-01-17T02:39:49.174Z,83.25
2023-01-17T02:42:20.472Z,75.88
2023-01-17T02:44:48.845Z,70.05
2023-01-17T02:47:30.507Z,77.32
2023-01-17T02:50:15.559Z,71.07
2023-01-17T02:53:04.049Z,65.13
2023-01-17T02:55:38.460Z,77.70
2023-01-17T02:58:25.012Z,76.70
2023-01-17T03:01:17.648Z,80.05
2023-01-17T03:03:58.923Z,79.60
2023-01-17T03:06:41.898Z,67.38
2023-01-17T03:09:10.882Z,73.88
2023-01-17T03:11:39.032Z,74.07
2023-01-17T03:14:07.141Z,69.95
2023-01-17T03:16:35.420Z,68.28
2023-01-17T03:19:04.354Z,66.80
2023-01-17T03:21:32.988Z,67.13
2023-01-17T03:24:01.097Z,72.93
2023-01-17T03:26:29.859Z,72.30
2023-01-17T03:28:58.784Z,66.85
2023-01-17T03:31:27.069Z,71.43
2023-01-17T03:33:55.348Z,68.22
2023-01-17T03:36:23.420Z,70.10
2023-01-17T03:38:52.052Z,69.13
2023-01-17T03:41:20.255Z,73.32
2023-01-17T03:43:48.362Z,68.18
2023-01-17T03:46:25.750Z,70.97
2023-01-17T03:48:54.023Z,65.78
2023-01-17T03:51:22.285Z,65.88
2023-01-17T03:53:51.118Z,67.25
2023-01-17T03:56:19.823Z,72.97
2023-01-17T03:58:48.110Z,64.35
2023-01-17T04:01:16.378Z,64.78
2023-01-17T04:03:44.943Z,66.07
2023-01-17T04:06:12.838Z,67.88
2023-01-17T04:08:40.688Z,62.50
2023-01-17T04:11:09.151Z,65.15
2023-01-17T04:13:37.361Z,62.97
2023-01-17T04:16:05.929Z,52.50
2023-01-17T04:18:34.472Z,57.10
2023-01-17T04:21:02.992Z,55.03
2023-01-17T04:23:31.599Z,57.72
2023-01-17T04:25:59.712Z,57.42
2023-01-17T04:28:27.874Z,50.65
2023-01-17T04:31:00.919Z,60.65
2023-01-17T04:33:29.505Z,52.00
2023-01-17T04:35:57.782Z,50.60
2023-01-17T04:38:25.978Z,49.13
2023-01-17T04:40:54.213Z,49.00
2023-01-17T04:43:22.868Z,46.78
2023-01-17T04:45:58.633Z,52.17
2023-01-17T04:48:27.719Z,53.28
2023-01-17T04:51:06.342Z,47.08
2023-01-17T04:53:34.313Z,54.17
2023-01-17T04:56:02.396Z,50.45
2023-01-17T04:58:31.044Z,57.25
2023-01-17T05:01:06.936Z,57.47
2023-01-17T05:03:35.440Z,58.10
2023-01-17T05:06:03.763Z,48.50
2023-01-17T05:08:31.763Z,55.85
2023-01-17T05:10:59.842Z,51.60
2023-01-17T05:13:27.869Z,48.33
2023-01-17T05:15:57.976Z,44.55
2023-01-17T05:18:26.621Z,45.92
2023-01-17T05:20:55.214Z,45.00
2023-01-17T05:23:23.292Z,38.03
2023-01-17T05:25:51.813Z,36.65
2023-01-17T05:28:20.412Z,45.58
2023-01-17T05:30:49.145Z,44.25
2023-01-17T05:33:17.503Z,42.08
2023-01-17T05:35:46.294Z,43.55
2023-01-17T17:25:35.836Z,29.60
2023-01-17T17:28:05.464Z,27.58
2023-01-17T17:30:33.793Z,29.33
2023-01-17T17:33:04.870Z,28.40
2023-01-17T17:35:35.995Z,27.60
2023-01-17T17:38:07.269Z,26.63
2023-01-17T17:40:36.594Z,26.50
2023-01-17T17:43:05.228Z,23.55
2023-01-17T17:45:33.765Z,26.08
2023-01-17T17:48:02.434Z,21.52
2023-01-17T17:50:31.121Z,22.08
2023-01-17T17:52:59.275Z,24.30
2023-01-17T17:55:29.280Z,19.70
2023-01-17T17:57:57.848Z,21.65
2023-01-17T18:00:26.249Z,21.35
2023-01-17T18:02:54.649Z,22.73
2023-01-17T18:05:22.824Z,20.98
2023-01-17T18:07:52.226Z,23.13
2023-01-17T18:10:20.581Z,21.83
2023-01-17T18:12:50.226Z,22.65
2023-01-17T18:15:19.546Z,20.13
2023-01-17T18:17:48.898Z,18.80
2023-01-17T18:20:17.475Z,20.48
2023-01-17T18:22:46.030Z,19.05
2023-01-17T18:25:14.738Z,16.90
2023-01-17T18:27:46.515Z,16.83
2023-01-17T18:30:14.957Z,17.27
2023-01-17T18:32:43.355Z,17.13
2023-01-17T18:35:12.108Z,16.85
2023-01-17T18:37:40.803Z,13.63
2023-01-17T18:40:10.090Z,14.93
2023-01-17T18:42:39.850Z,16.85
2023-01-17T18:45:08.564Z,17.90
2023-01-17T18:47:38.883Z,16.48
2023-01-17T18:50:07.771Z,18.13
2023-01-17T18:52:36.214Z,16.83
2023-01-17T18:55:05.591Z,18.75
2023-01-17T18:57:34.256Z,16.95
2023-01-17T19:00:03.169Z,15.77
2023-01-17T19:02:31.979Z,14.30
2023-01-17T19:05:02.586Z,14.30
2023-01-17T19:07:33.244Z,15.20
2023-01-17T19:10:02.106Z,12.88
2023-01-17T19:12:30.543Z,13.80
2023-01-17T19:14:58.742Z,13.57
2023-01-17T19:17:27.374Z,13.82
2023-01-17T19:19:57.101Z,14.63
2023-01-17T19:22:25.429Z,13.48
2023-01-17T19:24:54.092Z,13.90
2023-01-17T19:27:22.210Z,14.25
2023-01-17T19:29:50.891Z,13.20
2023-01-17T19:32:19.808Z,14.43
2023-01-17T19:34:48.129Z,14.25
2023-01-17T19:37:16.497Z,15.50
2023-01-17T19:39:45.932Z,15.35
2023-01-17T19:42:16.270Z,14.98
2023-01-17T19:44:44.773Z,14.52
2023-01-17T19:47:13.124Z,12.98
2023-01-17T19:49:43.158Z,14.52
2023-01-17T19:52:12.069Z,14.82
2023-01-17T19:54:41.773Z,14.48
2023-01-17T19:57:10.054Z,15.85
2023-01-17T19:59:38.374Z,18.05
2023-01-17T20:02:06.669Z,16.27
2023-01-17T20:04:35.119Z,15.52
2023-01-17T20:07:03.509Z,15.13
2023-01-17T20:09:32.233Z,16.45
2023-01-17T20:12:01.593Z,15.90
2023-01-17T20:14:30.281Z,14.23
2023-01-17T20:16:58.989Z,15.77
2023-01-17T20:19:27.839Z,15.68
2023-01-17T20:21:56.417Z,16.00
2023-01-17T20:24:24.553Z,14.07
2023-01-17T20:26:53.041Z,14.45
2023-01-17T20:29:21.383Z,12.55
2023-01-17T20:31:53.249Z,15.27
2023-01-17T20:34:21.799Z,14.23
2023-01-17T20:36:50.041Z,16.45
2023-01-17T20:39:19.832Z,14.88
2023-01-17T20:41:50.103Z,16.38
2023-01-17T20:44:19.986Z,16.75
2023-01-17T20:46:48.543Z,16.13
2023-01-17T20:49:19.818Z,17.65
2023-01-17T20:51:53.202Z,16.98
2023-01-17T20:54:27.180Z,16.67
2023-01-17T20:56:56.782Z,17.30
2023-01-17T20:59:25.057Z,17.15
2023-01-17T21:01:54.305Z,15.35
2023-01-17T21:04:26.397Z,18.15
2023-01-17T21:11:31.067Z,18.10
2023-01-17T21:17:48.129Z,16.63
2023-01-17T21:20:17.700Z,15.15
2023-01-17T21:22:45.872Z,19.17
2023-01-17T21:25:15.469Z,16.30
2023-01-17T21:27:44.443Z,18.08
2023-01-17T21:30:13.641Z,16.60
2023-01-17T21:36:48.407Z,18.73
2023-01-17T21:39:19.279Z,19.65
2023-01-17T21:41:49.890Z,18.90
2023-01-17T21:44:21.125Z,18.95
2023-01-17T21:46:56.256Z,19.02
2023-01-17T21:49:37.333Z,20.33
2023-01-17T21:52:05.407Z,19.23
2023-01-17T21:54:52.218Z,19.63
2023-01-17T22:00:27.143Z,17.02
2023-01-17T22:02:56.998Z,19.35
2023-01-17T22:05:28.651Z,17.27
2023-01-17T22:08:13.051Z,18.40
2023-01-17T22:10:45.586Z,21.52
2023-01-17T22:13:20.358Z,21.90
2023-01-17T22:15:59.237Z,18.98
2023-01-17T22:18:28.744Z,20.42
2023-01-17T22:20:57.943Z,19.23
2023-01-17T22:23:26.737Z,17.90
2023-01-17T22:26:01.666Z,19.83
2023-01-17T22:28:34.195Z,22.48
2023-01-17T22:31:21.307Z,20.38
2023-01-17T22:34:01.330Z,23.10
2023-01-17T22:36:32.004Z,24.25
2023-01-17T22:39:00.504Z,20.65
2023-01-17T22:41:32.055Z,25.08
2023-01-17T22:44:02.896Z,24.05
2023-01-17T22:46:33.398Z,28.15
2023-01-17T22:49:01.610Z,27.55
2023-01-17T22:51:30.207Z,26.35
2023-01-17T22:54:00.850Z,33.38
2023-01-17T22:56:32.349Z,27.90
2023-01-17T22:59:01.344Z,36.45
2023-01-17T23:01:32.931Z,34.15
2023-01-17T23:04:03.827Z,34.00
2023-01-17T23:06:37.762Z,33.15
2023-01-17T23:09:09.335Z,37.25
2023-01-17T23:11:44.210Z,37.50
2023-01-17T23:14:17.089Z,37.95
2023-01-17T23:17:05.613Z,41.05
2023-01-17T23:19:37.740Z,37.92
2023-01-17T23:22:20.776Z,37.60
2023-01-17T23:24:53.848Z,39.78
2023-01-17T23:27:51.003Z,41.42
2023-01-17T23:30:27.050Z,41.97
2023-01-17T23:32:59.127Z,41.08
2023-01-17T23:35:33.613Z,41.45
2023-01-17T23:38:21.013Z,44.72
2023-01-17T23:41:09.652Z,43.72
2023-01-17T23:43:38.418Z,43.15
2023-01-17T23:46:11.973Z,43.60
2023-01-17T23:48:40.277Z,47.45
2023-01-17T23:51:09.068Z,43.88
2023-01-17T23:53:39.154Z,44.92
2023-01-17T23:56:15.313Z,42.97
2023-01-17T23:58:43.468Z,47.37
